Time;durP1;ratioP1;P1;durP2;ratioP2;P2;SDS_P1;SDS_P2;PMS_P1;PMS_P2;Temp;Humidity;BMP_temperature;BMP_pressure;BME280_temperature;BME280_humidity;BME280_pressure;Samples;Min_cycle;Max_cycle;Signal;HPM_P1;HPM_P2
2022/03/07 00:02:08;;;;;;;9.30;3.75;;;0.30;99.90;;;;;;5035603;28;20116;-79
2022/03/07 00:04:34;;;;;;;9.10;3.65;;;;;;;;;;5035609;28;20045;-79
2022/03/07 00:07:01;;;;;;;11.57;3.63;;;;;;;;;;5053224;28;20056;-80
2022/03/07 00:09:27;;;;;;;7.85;3.38;;;;;;;;;;5035310;28;20071;-80
2022/03/07 00:11:53;;;;;;;8.40;3.65;;;;;;;;;;5052990;28;20089;-80
2022/03/07 00:14:19;;;;;;;9.07;3.30;;;;;;;;;;5035045;28;20049;-80
2022/03/07 00:16:45;;;;;;;7.35;3.47;;;0.10;99.90;;;;;;5034595;28;20045;-79
2022/03/07 00:19:11;;;;;;;7.90;3.03;;;;;;;;;;5035101;28;20037;-80
2022/03/07 00:21:37;;;;;;;7.63;3.53;;;;;;;;;;5019217;28;20385;-80
2022/03/07 00:24:05;;;;;;;7.53;3.17;;;0.00;99.90;;;;;;5016547;28;20049;-80
2022/03/07 00:26:30;;;;;;;8.98;3.65;;;0.00;99.90;;;;;;4998668;28;20049;-80
2022/03/07 00:28:56;;;;;;;7.82;3.25;;;0.10;99.90;;;;;;5032879;28;20083;-80
2022/03/07 00:31:23;;;;;;;6.53;3.03;;;0.10;99.90;;;;;;5015053;28;20044;-80
2022/03/07 00:33:50;;;;;;;7.60;3.42;;;0.40;99.90;;;;;;5048066;28;20446;-80
2022/03/07 00:36:15;;;;;;;7.35;3.65;;;0.20;99.90;;;;;;5015358;28;20462;-80
2022/03/07 00:38:41;;;;;;;6.55;3.50;;;-0.10;99.90;;;;;;5049607;28;20068;-80
2022/03/07 00:41:09;;;;;;;6.78;2.83;;;-0.10;99.90;;;;;;5034242;28;20045;-80
2022/03/07 00:43:34;;;;;;;8.25;2.88;;;-0.10;99.90;;;;;;5035137;28;20044;-80
2022/03/07 00:46:01;;;;;;;9.55;3.40;;;-0.10;99.90;;;;;;5033838;28;20045;-81
2022/03/07 00:48:27;;;;;;;9.15;3.47;;;0.00;99.90;;;;;;5034682;28;20052;-80
2022/03/07 00:54:34;;;;;;;9.90;4.03;;;;;;;;;;5052646;28;20451;-80
2022/03/07 00:56:59;;;;;;;9.15;3.40;;;-0.20;99.90;;;;;;5034324;28;20971;-80
2022/03/07 00:59:25;;;;;;;13.10;3.90;;;-0.10;99.90;;;;;;5051914;28;20037;-80
2022/03/07 01:01:50;;;;;;;7.07;3.53;;;0.10;99.90;;;;;;5034397;28;20449;-80
2022/03/07 01:04:16;;;;;;;8.80;3.30;;;-0.40;99.90;;;;;;5034464;28;20047;-80
2022/03/07 01:06:42;;;;;;;10.45;3.38;;;0.10;99.90;;;;;;5034060;28;20084;-80
2022/03/07 01:09:07;;;;;;;6.97;3.13;;;-0.30;99.90;;;;;;5052220;28;20044;-80
2022/03/07 01:11:33;;;;;;;8.18;3.70;;;;;;;;;;5034651;28;20047;-80
2022/03/07 01:13:59;;;;;;;6.07;2.60;;;1.10;99.90;;;;;;5018172;28;20324;-80
2022/03/07 01:16:26;;;;;;;7.75;3.10;;;;;;;;;;5034179;28;20478;-80
2022/03/07 01:18:51;;;;;;;9.02;3.22;;;-0.40;99.90;;;;;;5034330;28;20116;-80
2022/03/07 01:21:17;;;;;;;7.80;3.72;;;-0.40;99.90;;;;;;5034213;28;20446;-81
2022/03/07 01:23:43;;;;;;;9.20;3.20;;;0.00;99.90;;;;;;5052110;28;20128;-81
2022/03/07 01:26:08;;;;;;;8.07;3.30;;;-0.50;99.90;;;;;;5033753;28;20029;-80
2022/03/07 01:28:34;;;;;;;7.88;3.60;;;-0.40;99.90;;;;;;5034502;28;20086;-81
2022/03/07 01:30:59;;;;;;;8.27;3.53;;;-0.30;99.90;;;;;;5017436;28;20045;-80
2022/03/07 01:33:25;;;;;;;8.15;3.00;;;-0.40;99.90;;;;;;5034364;28;20044;-81
2022/03/07 01:35:51;;;;;;;6.43;3.33;;;-0.20;99.90;;;;;;5052112;28;20490;-80
2022/03/07 01:38:16;;;;;;;7.22;2.95;;;-0.40;99.90;;;;;;5051798;28;20102;-80
2022/03/07 01:40:44;;;;;;;6.63;2.92;;;-0.20;99.90;;;;;;5013854;28;20075;-80
2022/03/07 01:43:10;;;;;;;8.40;2.80;;;;;;;;;;5030466;28;20052;-80
2022/03/07 01:45:41;;;;;;;8.40;3.42;;;-0.40;99.90;;;;;;5032089;28;20045;-80
2022/03/07 01:48:07;;;;;;;6.97;2.50;;;;;;;;;;5030501;28;20055;-80
2022/03/07 01:50:33;;;;;;;10.82;3.30;;;;;;;;;;5031141;28;20038;-80
2022/03/07 01:52:59;;;;;;;9.73;3.03;;;0.60;99.90;;;;;;5030687;28;20540;-80
2022/03/07 01:55:25;;;;;;;12.85;3.28;;;-0.20;99.90;;;;;;5030744;28;20045;-80
2022/03/07 01:57:51;;;;;;;10.63;3.17;;;;;;;;;;5034170;28;20048;-80
2022/03/07 02:00:19;;;;;;;7.20;3.08;;;-0.70;99.90;;;;;;5034386;28;20116;-80
2022/03/07 02:02:45;;;;;;;8.07;4.15;;;;;;;;;;5034635;28;20394;-80
2022/03/07 02:05:12;;;;;;;10.52;3.50;;;-0.40;99.90;;;;;;5033985;28;20042;-80
2022/03/07 02:07:38;;;;;;;12.35;4.10;;;-0.30;99.90;;;;;;5035520;28;20042;-80
2022/03/07 02:10:06;;;;;;;14.77;5.28;;;-0.50;99.90;;;;;;5034597;28;20374;-80
2022/03/07 02:12:31;;;;;;;15.95;5.50;;;-0.40;99.90;;;;;;5035535;28;20132;-80
2022/03/07 02:14:57;;;;;;;17.13;4.55;;;;;;;;;;5034403;28;20518;-80
2022/03/07 02:17:23;;;;;;;11.85;3.90;;;-0.40;99.90;;;;;;5034075;28;20128;-80
2022/03/07 02:19:49;;;;;;;9.32;4.85;;;-0.40;99.90;;;;;;5035525;28;20224;-80
2022/03/07 02:22:16;;;;;;;10.63;4.30;;;-0.30;99.90;;;;;;5033823;28;20069;-81
2022/03/07 02:24:42;;;;;;;11.73;4.38;;;-0.60;99.90;;;;;;5033700;28;20053;-80
2022/03/07 02:27:10;;;;;;;8.65;4.10;;;-1.00;99.90;;;;;;5034126;28;20049;-80
2022/03/07 02:29:37;;;;;;;8.80;4.05;;;-0.60;99.90;;;;;;5035172;28;20099;-80
2022/03/07 02:32:05;;;;;;;8.63;3.63;;;-0.50;99.90;;;;;;5033848;28;20406;-80
2022/03/07 02:34:31;;;;;;;10.90;4.55;;;-0.60;99.90;;;;;;5033839;28;20402;-80
2022/03/07 02:36:56;;;;;;;9.25;3.55;;;-0.50;99.90;;;;;;5034070;28;20398;-80
2022/03/07 02:39:22;;;;;;;8.55;3.45;;;-0.70;99.90;;;;;;5033664;28;20050;-80
2022/03/07 02:41:48;;;;;;;7.80;4.25;;;-1.00;99.90;;;;;;5033659;28;20053;-80
2022/03/07 02:44:14;;;;;;;10.35;4.20;;;-0.60;99.90;;;;;;5033839;28;20060;-80
2022/03/07 02:46:41;;;;;;;12.63;4.20;;;;;;;;;;5033279;28;20143;-80
2022/03/07 02:49:07;;;;;;;9.68;4.05;;;;;;;;;;5033691;28;20049;-80
2022/03/07 02:51:34;;;;;;;11.05;4.45;;;-0.70;99.90;;;;;;5035409;28;20099;-80
2022/03/07 02:53:59;;;;;;;11.18;5.07;;;-0.70;99.90;;;;;;5033379;28;20045;-80
2022/03/07 02:56:25;;;;;;;7.00;2.97;;;-0.80;99.90;;;;;;5033563;28;20037;-80
2022/03/07 02:58:51;;;;;;;9.70;4.10;;;-1.00;99.90;;;;;;5033423;28;20544;-80
2022/03/07 03:01:17;;;;;;;9.38;3.97;;;-0.80;99.90;;;;;;5033321;28;20080;-80
2022/03/07 03:03:42;;;;;;;9.15;4.30;;;-0.70;99.90;;;;;;5033232;28;20481;-80
2022/03/07 03:06:08;;;;;;;8.82;3.95;;;-0.80;99.90;;;;;;5033319;28;20049;-80
2022/03/07 03:08:34;;;;;;;11.27;4.22;;;-0.10;99.90;;;;;;5032735;28;20055;-80
2022/03/07 03:11:01;;;;;;;9.27;3.83;;;-1.00;99.90;;;;;;5032802;28;20128;-79
2022/03/07 03:13:27;;;;;;;13.77;4.15;;;-0.90;99.90;;;;;;5033116;28;20060;-80
2022/03/07 03:15:55;;;;;;;11.30;4.35;;;-0.80;99.90;;;;;;5032751;28;20048;-80
2022/03/07 03:18:21;;;;;;;8.60;3.55;;;-0.40;99.90;;;;;;5033014;28;20095;-80
2022/03/07 03:20:49;;;;;;;9.00;3.47;;;-0.60;99.90;;;;;;5032903;28;20052;-80
2022/03/07 03:23:16;;;;;;;9.48;3.95;;;-1.00;99.90;;;;;;5032875;28;20116;-80
2022/03/07 03:25:41;;;;;;;7.68;3.72;;;-0.80;99.90;;;;;;5032884;28;20509;-80
2022/03/07 03:28:07;;;;;;;7.97;4.28;;;-0.70;99.90;;;;;;5033136;28;20041;-79
2022/03/07 03:30:33;;;;;;;13.80;5.35;;;-0.90;99.90;;;;;;5032743;28;20180;-80
2022/03/07 03:33:00;;;;;;;11.52;3.90;;;-0.80;99.90;;;;;;5032786;28;20042;-80
2022/03/07 03:35:25;;;;;;;9.15;3.55;;;-1.00;99.90;;;;;;5016067;28;20114;-80
2022/03/07 03:37:51;;;;;;;7.88;3.33;;;-0.90;99.90;;;;;;5032863;28;20521;-80
2022/03/07 03:40:17;;;;;;;7.70;3.90;;;-0.80;99.90;;;;;;5035776;28;20506;-80
2022/03/07 03:42:43;;;;;;;9.38;3.47;;;-0.40;99.90;;;;;;5036060;28;20037;-80
2022/03/07 03:45:10;;;;;;;7.55;3.13;;;-0.50;99.90;;;;;;5018894;28;20052;-80
2022/03/07 03:47:37;;;;;;;8.40;3.67;;;-1.00;99.90;;;;;;5035852;28;20081;-80
2022/03/07 03:50:04;;;;;;;7.95;3.75;;;-1.00;99.90;;;;;;5035612;28;20511;-80
2022/03/07 03:52:30;;;;;;;8.32;3.08;;;-1.00;99.90;;;;;;5035542;28;20132;-80
2022/03/07 03:54:56;;;;;;;10.10;3.58;;;-1.40;99.90;;;;;;5035512;28;20083;-80
2022/03/07 03:57:23;;;;;;;8.00;2.90;;;-1.50;99.90;;;;;;5035563;28;20037;-80
2022/03/07 03:59:49;;;;;;;6.18;2.88;;;-1.30;99.90;;;;;;5028925;28;20490;-80
2022/03/07 04:02:15;;;;;;;8.40;3.88;;;-1.20;99.90;;;;;;5015739;28;20080;-79
2022/03/07 04:04:41;;;;;;;7.65;3.53;;;-1.00;99.90;;;;;;5048646;28;20128;-80
2022/03/07 04:07:07;;;;;;;8.98;3.45;;;-1.30;99.90;;;;;;5015638;28;20133;-80
2022/03/07 04:09:34;;;;;;;7.95;3.50;;;-1.10;99.90;;;;;;5016009;28;20517;-80
2022/03/07 04:11:59;;;;;;;12.20;3.65;;;-1.20;99.90;;;;;;5048506;28;20053;-80
2022/03/07 04:14:25;;;;;;;8.20;3.70;;;-1.10;99.90;;;;;;5015305;28;20494;-80
2022/03/07 04:16:51;;;;;;;8.35;4.95;;;-1.10;99.90;;;;;;5015406;28;20049;-80
2022/03/07 04:19:17;;;;;;;8.50;3.75;;;-1.00;99.90;;;;;;5048296;28;20042;-80
2022/03/07 04:21:43;;;;;;;15.52;5.50;;;-1.30;99.90;;;;;;5048575;28;20045;-80
2022/03/07 04:24:11;;;;;;;36.50;12.90;;;-1.00;99.90;;;;;;5015043;28;20056;-80
2022/03/07 04:26:38;;;;;;;32.33;12.30;;;;;;;;;;5018690;28;20037;-80
2022/03/07 04:29:08;;;;;;;33.15;12.52;;;-0.90;99.90;;;;;;5035024;28;20486;-80
2022/03/07 04:31:41;;;;;;;44.17;18.05;;;-1.30;99.90;;;;;;5034918;28;20047;-80
2022/03/07 04:34:08;;;;;;;51.58;17.90;;;-1.20;99.90;;;;;;5035142;28;20187;-80
2022/03/07 04:36:35;;;;;;;54.13;18.58;;;-1.10;99.90;;;;;;5034493;28;20048;-80
2022/03/07 04:39:03;;;;;;;53.55;19.52;;;-1.20;99.90;;;;;;5034583;28;20061;-80
2022/03/07 04:41:29;;;;;;;47.85;16.23;;;-1.50;99.90;;;;;;5034820;28;20080;-81
2022/03/07 04:43:54;;;;;;;38.90;15.25;;;-1.00;99.90;;;;;;5034814;28;20072;-81
2022/03/07 04:46:20;;;;;;;40.03;17.85;;;-1.40;99.90;;;;;;5034899;28;20036;-81
2022/03/07 04:48:46;;;;;;;46.20;16.58;;;-1.10;99.90;;;;;;5034663;28;20037;-81
2022/03/07 04:51:12;;;;;;;47.03;18.60;;;-1.10;99.90;;;;;;5017886;28;20045;-81
2022/03/07 04:53:38;;;;;;;41.65;15.88;;;-1.30;99.90;;;;;;5034740;28;20124;-81
2022/03/07 04:56:04;;;;;;;42.58;15.23;;;-1.60;99.90;;;;;;5034415;28;20124;-80
2022/03/07 04:58:30;;;;;;;29.23;12.68;;;-1.40;99.90;;;;;;5034604;28;20048;-81
2022/03/07 05:00:55;;;;;;;29.75;12.50;;;-1.30;99.90;;;;;;5034768;28;20047;-81
2022/03/07 05:03:21;;;;;;;31.10;11.95;;;-1.20;99.90;;;;;;5018253;28;20354;-81
2022/03/07 05:05:49;;;;;;;33.50;13.13;;;-1.90;99.90;;;;;;5034119;28;20123;-81
2022/03/07 05:08:15;;;;;;;35.03;12.80;;;-1.70;99.90;;;;;;5014558;28;20033;-81
2022/03/07 05:10:40;;;;;;;36.10;15.05;;;-1.70;99.90;;;;;;5032418;28;20056;-81
2022/03/07 05:13:06;;;;;;;29.17;12.23;;;;;;;;;;5032320;28;20033;-81
2022/03/07 05:15:32;;;;;;;31.98;11.80;;;-1.00;99.90;;;;;;5052525;28;20045;-81
2022/03/07 05:17:58;;;;;;;31.67;13.00;;;;;;;;;;5033969;28;20421;-81
2022/03/07 05:20:25;;;;;;;29.08;11.40;;;-1.00;99.90;;;;;;5034054;28;20040;-81
2022/03/07 05:22:51;;;;;;;32.92;12.45;;;-1.70;99.90;;;;;;5033975;28;20043;-80
2022/03/07 05:25:18;;;;;;;33.20;11.73;;;-1.40;99.90;;;;;;5033795;28;20144;-81
2022/03/07 05:27:44;;;;;;;28.75;11.65;;;-1.30;99.90;;;;;;5050368;28;20045;-81
2022/03/07 05:30:15;;;;;;;27.92;11.98;;;-1.40;99.90;;;;;;5034235;28;20064;-81
2022/03/07 05:32:45;;;;;;;24.85;10.02;;;-1.30;99.90;;;;;;5021535;28;20102;-81
2022/03/07 05:35:12;;;;;;;28.30;11.80;;;;;;;;;;5038194;28;20041;-81
2022/03/07 05:37:38;;;;;;;21.02;9.80;;;-1.40;99.90;;;;;;5038542;28;20052;-81
2022/03/07 05:40:06;;;;;;;24.48;10.00;;;-1.50;99.90;;;;;;5055788;28;20045;-81
2022/03/07 05:42:33;;;;;;;25.17;8.98;;;-1.40;99.90;;;;;;5037867;28;20045;-81
2022/03/07 05:44:59;;;;;;;20.55;8.98;;;;;;;;;;5055641;28;20047;-81
2022/03/07 05:47:24;;;;;;;19.83;9.30;;;-1.60;99.90;;;;;;5056079;28;20120;-81
2022/03/07 05:49:50;;;;;;;22.65;9.50;;;-1.30;99.90;;;;;;5037707;28;20486;-82
2022/03/07 05:52:16;;;;;;;23.08;9.20;;;;;;;;;;5021415;28;20045;-81
2022/03/07 05:54:42;;;;;;;20.88;8.35;;;;;;;;;;5037772;28;20073;-81
2022/03/07 05:57:08;;;;;;;22.85;8.48;;;-1.40;99.90;;;;;;5021409;28;20068;-81
2022/03/07 05:59:34;;;;;;;26.90;10.10;;;-1.60;99.90;;;;;;5038091;28;20124;-81
2022/03/07 06:02:00;;;;;;;25.85;9.73;;;;;;;;;;5036716;28;20072;-81
2022/03/07 06:04:26;;;;;;;23.77;10.02;;;-1.80;99.90;;;;;;5037659;28;20045;-81
2022/03/07 06:06:52;;;;;;;24.17;8.77;;;-1.40;99.90;;;;;;5037230;28;20490;-81
2022/03/07 06:09:17;;;;;;;20.48;8.60;;;-1.80;99.90;;;;;;5037653;28;20052;-81
2022/03/07 06:11:43;;;;;;;19.77;8.38;;;;;;;;;;5037393;28;20094;-82
2022/03/07 06:14:09;;;;;;;15.15;7.78;;;;;;;;;;5037773;28;20048;-81
2022/03/07 06:16:35;;;;;;;20.13;7.78;;;;;;;;;;5037687;28;20051;-82
2022/03/07 06:19:01;;;;;;;13.50;6.97;;;-1.80;99.90;;;;;;5037113;28;20040;-81
2022/03/07 06:21:27;;;;;;;15.60;9.02;;;-1.60;99.90;;;;;;5020105;28;20045;-81
2022/03/07 06:23:53;;;;;;;19.38;7.80;;;-1.30;99.90;;;;;;5055200;28;20071;-81
2022/03/07 06:26:19;;;;;;;17.00;10.15;;;-1.60;99.90;;;;;;5037284;28;20082;-81
2022/03/07 06:28:44;;;;;;;20.27;9.13;;;-1.40;99.90;;;;;;5037025;28;20040;-81
2022/03/07 06:31:10;;;;;;;17.35;7.10;;;-1.70;99.90;;;;;;5037251;28;20124;-82
2022/03/07 06:33:39;;;;;;;16.52;8.18;;;-1.40;99.90;;;;;;5037362;28;20048;-82
2022/03/07 06:36:06;;;;;;;15.52;6.90;;;-1.40;99.90;;;;;;5054977;28;20048;-82
2022/03/07 06:38:32;;;;;;;19.25;8.98;;;;;;;;;;5037043;28;20536;-81
2022/03/07 06:40:58;;;;;;;18.63;8.38;;;;;;;;;;5032894;28;20406;-76
2022/03/07 06:43:24;;;;;;;15.90;7.20;;;-1.60;99.90;;;;;;5016618;28;20041;-80
2022/03/07 06:45:52;;;;;;;14.27;7.75;;;-1.10;99.90;;;;;;5024905;28;20090;-82
2022/03/07 06:48:21;;;;;;;14.80;6.45;;;-1.40;99.90;;;;;;5029592;28;20041;-81
2022/03/07 06:50:47;;;;;;;14.32;6.82;;;;;;;;;;5051376;28;20155;-82
2022/03/07 06:53:13;;;;;;;12.95;7.32;;;-1.70;99.90;;;;;;5016302;28;20041;-81
2022/03/07 06:55:39;;;;;;;16.90;7.45;;;;;;;;;;5016980;28;20052;-81
2022/03/07 06:58:05;;;;;;;13.73;6.60;;;-1.40;99.90;;;;;;5026277;28;20389;-82
2022/03/07 07:00:31;;;;;;;15.43;7.28;;;-1.10;99.90;;;;;;5020347;28;20038;-81
2022/03/07 07:02:57;;;;;;;11.45;6.65;;;-2.70;99.90;;;;;;5014988;28;20696;-81
2022/03/07 07:05:23;;;;;;;13.38;6.50;;;;;;;;;;5014411;28;20045;-82
2022/03/07 07:07:49;;;;;;;17.08;6.10;;;;;;;;;;5034283;28;20045;-76
2022/03/07 07:10:18;;;;;;;11.75;6.22;;;;;;;;;;5016147;28;20038;-81
2022/03/07 07:12:45;;;;;;;13.70;6.20;;;-1.10;99.90;;;;;;5017779;28;20156;-83
2022/03/07 07:15:11;;;;;;;11.85;6.22;;;;;;;;;;5024741;28;20092;-83
2022/03/07 07:17:37;;;;;;;14.20;7.05;;;;;;;;;;5033883;28;20066;-81
2022/03/07 07:20:04;;;;;;;16.80;6.93;;;-0.90;99.90;;;;;;5030102;28;20461;-81
2022/03/07 07:22:30;;;;;;;13.63;6.53;;;-0.90;99.90;;;;;;5016828;28;20398;-82
2022/03/07 07:24:56;;;;;;;14.55;6.38;;;-0.50;99.90;;;;;;5016148;28;20045;-79
2022/03/07 07:27:22;;;;;;;11.35;6.03;;;;;;;;;;5016343;28;20502;-82
2022/03/07 07:29:47;;;;;;;14.13;6.00;;;-0.50;99.90;;;;;;5016336;28;20045;-80
2022/03/07 07:32:13;;;;;;;9.55;4.63;;;;;;;;;;5015835;28;20037;-81
2022/03/07 07:34:39;;;;;;;12.27;5.93;;;;;;;;;;5016027;28;20045;-80
2022/03/07 07:37:06;;;;;;;9.13;3.88;;;;;;;;;;5016732;28;20046;-78
2022/03/07 07:39:32;;;;;;;10.45;4.60;;;;;;;;;;5022655;28;20057;-80
2022/03/07 07:41:58;;;;;;;9.32;4.47;;;;;;;;;;5026509;28;20048;-80
2022/03/07 07:44:24;;;;;;;9.95;5.20;;;;;;;;;;5030033;28;20037;-81
2022/03/07 07:46:49;;;;;;;13.40;6.65;;;0.00;99.90;;;;;;5020376;28;20053;-81
2022/03/07 07:49:15;;;;;;;12.80;7.57;;;;;;;;;;5032212;28;20482;-81
2022/03/07 07:51:42;;;;;;;13.32;7.57;;;;;;;;;;5024326;28;20061;-81
2022/03/07 07:54:08;;;;;;;11.73;7.03;;;;;;;;;;5015102;28;20176;-81
2022/03/07 07:56:34;;;;;;;10.10;6.13;;;0.50;99.90;;;;;;5015942;28;20041;-80
2022/03/07 07:58:59;;;;;;;12.75;7.28;;;0.30;99.90;;;;;;5033262;28;20056;-81
2022/03/07 08:01:26;;;;;;;12.13;5.35;;;0.70;99.90;;;;;;5015477;28;20034;-80
2022/03/07 08:03:51;;;;;;;8.73;4.72;;;0.60;99.90;;;;;;5011709;28;20045;-80
2022/03/07 08:06:32;;;;;;;8.05;5.10;;;1.00;99.90;;;;;;5009418;28;20393;-81
2022/03/07 08:08:58;;;;;;;8.25;4.60;;;1.20;99.90;;;;;;5014843;28;20092;-80
2022/03/07 08:11:24;;;;;;;9.48;4.85;;;;;;;;;;5015145;28;20069;-81
2022/03/07 08:13:50;;;;;;;9.55;5.00;;;;;;;;;;4997690;28;20417;-80
2022/03/07 08:16:17;;;;;;;9.95;4.97;;;1.40;99.90;;;;;;4997828;28;20045;-80
2022/03/07 08:18:43;;;;;;;10.38;4.72;;;1.20;99.90;;;;;;4997544;28;20045;-78
2022/03/07 08:21:08;;;;;;;10.18;5.63;;;1.70;99.90;;;;;;4998758;28;20047;-80
2022/03/07 08:23:34;;;;;;;11.48;5.18;;;1.60;99.90;;;;;;5014823;28;20041;-82
2022/03/07 08:26:00;;;;;;;9.95;4.95;;;;;;;;;;5015049;28;20068;-81
2022/03/07 08:28:26;;;;;;;13.30;5.72;;;;;;;;;;5014467;28;20047;-82
2022/03/07 08:30:52;;;;;;;8.18;4.60;;;;;;;;;;5029149;28;20049;-82
2022/03/07 08:33:18;;;;;;;10.25;5.20;;;;;;;;;;5014661;28;20049;-83
2022/03/07 08:35:44;;;;;;;9.95;4.70;;;;;;;;;;5014741;28;20045;-82
2022/03/07 08:38:10;;;;;;;8.73;4.22;;;;;;;;;;5015238;28;20033;-83
2022/03/07 08:40:37;;;;;;;8.65;3.83;;;;;;;;;;5030766;28;20473;-83
2022/03/07 08:43:03;;;;;;;8.18;4.63;;;;;;;;;;5034220;28;20052;-83
2022/03/07 08:45:29;;;;;;;9.20;5.03;;;;;;;;;;5033205;28;20045;-83
2022/03/07 08:47:58;;;;;;;9.90;4.82;;;;;;;;;;5017039;28;20438;-83
2022/03/07 08:50:24;;;;;;;9.38;4.47;;;;;;;;;;5051869;28;20507;-84
2022/03/07 08:52:50;;;;;;;7.68;3.70;;;;;;;;;;5034479;28;20128;-84
2022/03/07 08:55:16;;;;;;;8.45;3.90;;;;;;;;;;5034159;28;20049;-84
2022/03/07 08:57:42;;;;;;;7.80;3.58;;;;;;;;;;5033760;28;20037;-83
2022/03/07 09:00:12;;;;;;;10.98;3.60;;;;;;;;;;5033968;28;20123;-83
2022/03/07 09:02:39;;;;;;;7.00;3.67;;;;;;;;;;5034525;28;20099;-82
2022/03/07 09:05:05;;;;;;;8.73;3.33;;;4.30;99.90;;;;;;5026122;28;20042;-80
2022/03/07 09:07:31;;;;;;;9.75;3.50;;;;;;;;;;5030190;28;20124;-80
2022/03/07 09:09:57;;;;;;;7.45;4.30;;;3.60;99.90;;;;;;5033024;28;20075;-80
2022/03/07 09:12:27;;;;;;;9.55;3.72;;;;;;;;;;5033917;28;20882;-80
2022/03/07 09:14:56;;;;;;;10.35;4.32;;;4.20;99.90;;;;;;5017844;28;20041;-81
2022/03/07 09:17:22;;;;;;;7.45;3.60;;;3.80;99.90;;;;;;5033967;28;20079;-81
2022/03/07 09:19:47;;;;;;;8.85;4.35;;;4.40;99.90;;;;;;5033509;28;20442;-80
2022/03/07 09:22:13;;;;;;;7.40;2.97;;;3.80;99.90;;;;;;5034460;28;20445;-79
2022/03/07 09:24:38;;;;;;;6.57;3.60;;;3.80;99.90;;;;;;5033926;28;20083;-80
2022/03/07 09:27:04;;;;;;;6.97;3.47;;;4.20;99.90;;;;;;5033841;28;20044;-81
2022/03/07 09:29:30;;;;;;;7.82;3.53;;;;;;;;;;5032549;28;20086;-81
2022/03/07 09:31:56;;;;;;;8.70;3.13;;;;;;;;;;5033214;28;20037;-82
2022/03/07 09:34:22;;;;;;;7.00;3.30;;;;;;;;;;5033541;28;20059;-81
2022/03/07 09:36:48;;;;;;;7.60;3.40;;;4.50;99.90;;;;;;5034091;28;20037;-81
2022/03/07 09:39:14;;;;;;;7.18;3.20;;;;;;;;;;5054505;28;20115;-82
2022/03/07 09:41:42;;;;;;;7.57;3.15;;;4.30;99.90;;;;;;5034110;28;20153;-82
2022/03/07 09:44:08;;;;;;;8.57;2.97;;;4.70;99.90;;;;;;5033701;28;20045;-83
2022/03/07 09:46:33;;;;;;;7.70;3.40;;;4.50;99.90;;;;;;5033065;28;20045;-82
2022/03/07 09:48:59;;;;;;;8.15;3.35;;;4.70;99.90;;;;;;5032506;28;21106;-83
2022/03/07 09:51:25;;;;;;;7.03;3.03;;;;;;;;;;5033028;28;20045;-83
2022/03/07 09:53:51;;;;;;;6.18;2.80;;;4.80;99.90;;;;;;5032971;28;20044;-83
2022/03/07 09:56:16;;;;;;;6.13;2.65;;;4.60;99.90;;;;;;5033687;28;20048;-85
2022/03/07 09:58:42;;;;;;;5.78;2.60;;;;;;;;;;5033122;28;20124;-84
2022/03/07 10:01:18;;;;;;;8.05;2.67;;;5.00;99.90;;;;;;5033484;28;20114;-84
2022/03/07 10:03:45;;;;;;;7.40;2.80;;;4.90;99.90;;;;;;5033481;28;20041;-83
2022/03/07 10:06:17;;;;;;;11.32;2.78;;;4.80;99.90;;;;;;5015273;28;20055;-82
2022/03/07 10:08:56;;;;;;;13.60;7.18;;;5.00;99.90;;;;;;5033047;28;20045;-82
2022/03/07 10:11:22;;;;;;;12.80;4.60;;;5.00;99.90;;;;;;5032875;28;20825;-83
2022/03/07 10:13:50;;;;;;;7.53;3.08;;;5.10;99.90;;;;;;5033804;28;20049;-78
2022/03/07 10:16:17;;;;;;;14.63;5.88;;;5.10;99.90;;;;;;5032893;28;20045;-84
2022/03/07 10:18:50;;;;;;;20.90;8.05;;;5.30;99.90;;;;;;5036740;28;20067;-83
2022/03/07 10:21:25;;;;;;;62.15;30.80;;;5.90;99.90;;;;;;5054287;28;20385;-83
2022/03/07 10:23:56;;;;;;;10.98;5.32;;;5.30;99.90;;;;;;5020580;28;20033;-84
2022/03/07 10:26:23;;;;;;;6.22;2.80;;;5.10;99.90;;;;;;5053914;28;20039;-82
2022/03/07 10:28:56;;;;;;;7.20;3.08;;;5.00;99.90;;;;;;5054907;28;20044;-81
2022/03/07 10:31:23;;;;;;;6.10;2.60;;;;;;;;;;5036687;28;20045;-82
2022/03/07 10:34:09;;;;;;;7.63;2.90;;;5.60;99.90;;;;;;5036765;28;20056;-81
2022/03/07 10:36:38;;;;;;;6.85;2.88;;;5.60;99.90;;;;;;5036652;28;20501;-80
2022/03/07 10:39:06;;;;;;;6.22;2.60;;;5.40;99.90;;;;;;5053259;28;20051;-80
2022/03/07 10:41:42;;;;;;;10.52;2.65;;;5.70;99.90;;;;;;5046335;28;20482;-82
2022/03/07 10:44:11;;;;;;;6.47;2.17;;;5.80;99.90;;;;;;5036614;28;20528;-80
2022/03/07 10:46:40;;;;;;;7.30;2.55;;;;;;;;;;5036988;28;20040;-79
2022/03/07 10:49:11;;;;;;;7.90;2.38;;;5.90;99.90;;;;;;5036079;28;20486;-76
2022/03/07 10:51:37;;;;;;;8.20;2.90;;;5.80;99.90;;;;;;5036425;28;20073;-81
2022/03/07 10:54:13;;;;;;;6.35;2.10;;;5.40;99.90;;;;;;5036908;28;20083;-82
2022/03/07 10:56:52;;;;;;;4.70;2.05;;;6.20;99.90;;;;;;5036899;28;20497;-80
2022/03/07 10:59:29;;;;;;;6.57;2.17;;;5.20;99.90;;;;;;5036519;28;20473;-82
2022/03/07 11:02:03;;;;;;;6.38;2.13;;;5.30;99.90;;;;;;5035706;28;20048;-75
2022/03/07 11:04:29;;;;;;;5.60;2.10;;;5.70;99.90;;;;;;5036708;28;20379;-61
2022/03/07 11:06:56;;;;;;;8.05;2.35;;;;;;;;;;5036340;28;20516;-62
2022/03/07 11:09:21;;;;;;;11.23;2.78;;;5.50;99.90;;;;;;5034988;28;20061;-61
2022/03/07 11:11:48;;;;;;;6.47;3.25;;;5.80;99.90;;;;;;5036161;28;20131;-60
2022/03/07 11:14:15;;;;;;;5.85;2.75;;;5.70;99.90;;;;;;5036183;28;20053;-60
2022/03/07 11:16:43;;;;;;;5.70;2.20;;;5.70;99.90;;;;;;5035216;28;20041;-62
2022/03/07 11:19:09;;;;;;;8.27;2.45;;;;;;;;;;5035624;28;20048;-68
2022/03/07 11:21:38;;;;;;;5.53;2.20;;;6.30;99.90;;;;;;5036435;28;20040;-69
2022/03/07 11:24:04;;;;;;;6.20;2.17;;;6.20;99.90;;;;;;5035027;28;20045;-69
2022/03/07 11:26:30;;;;;;;6.63;2.45;;;5.80;99.90;;;;;;5053965;28;20432;-68
2022/03/07 11:28:57;;;;;;;5.07;1.92;;;;;;;;;;5035119;28;20037;-69
2022/03/07 11:31:26;;;;;;;4.82;2.00;;;6.30;99.90;;;;;;5050040;28;20397;-67
2022/03/07 11:33:53;;;;;;;8.25;2.10;;;6.20;99.90;;;;;;5035977;28;20098;-67
2022/03/07 11:36:24;;;;;;;5.75;2.53;;;6.30;99.90;;;;;;5035187;28;20037;-67
2022/03/07 11:38:51;;;;;;;7.85;2.22;;;6.40;99.90;;;;;;5025238;28;20077;-68
2022/03/07 11:41:24;;;;;;;5.25;2.10;;;6.50;99.90;;;;;;5032465;28;20548;-68
2022/03/07 11:44:03;;;;;;;4.72;2.10;;;6.10;99.90;;;;;;5023737;28;20046;-70
2022/03/07 11:46:34;;;;;;;9.65;2.60;;;;;;;;;;5013962;28;20049;-67
2022/03/07 11:49:01;;;;;;;6.03;2.60;;;6.40;99.90;;;;;;5033140;28;20348;-68
2022/03/07 11:51:29;;;;;;;5.50;2.30;;;6.20;99.90;;;;;;5031800;28;20108;-68
2022/03/07 11:53:56;;;;;;;6.13;2.10;;;6.40;99.90;;;;;;5031944;28;20054;-68
2022/03/07 11:56:37;;;;;;;6.22;2.58;;;6.40;99.90;;;;;;5031969;28;20056;-67
2022/03/07 11:59:08;;;;;;;8.68;2.75;;;6.40;99.90;;;;;;5014977;28;20037;-67
2022/03/07 12:01:34;;;;;;;7.35;2.65;;;6.70;99.90;;;;;;5032708;28;20076;-66
2022/03/07 12:04:14;;;;;;;5.38;2.30;;;6.50;99.90;;;;;;5032766;28;20423;-67
2022/03/07 12:06:49;;;;;;;6.93;2.05;;;6.60;99.90;;;;;;5011544;28;20046;-67
2022/03/07 12:09:28;;;;;;;6.75;2.85;;;6.90;99.90;;;;;;5025742;28;20045;-67
2022/03/07 12:12:08;;;;;;;7.93;2.63;;;7.20;99.90;;;;;;5031549;28;20037;-67
2022/03/07 12:14:42;;;;;;;7.22;2.38;;;6.40;99.90;;;;;;5032081;28;20045;-67
2022/03/07 12:17:13;;;;;;;5.25;1.75;;;6.70;99.90;;;;;;5032235;28;20367;-67
2022/03/07 12:19:39;;;;;;;4.85;2.05;;;6.80;99.90;;;;;;5029981;28;20041;-67
2022/03/07 12:22:14;;;;;;;5.65;2.50;;;7.00;99.90;;;;;;5033350;28;20473;-67
2022/03/07 12:24:40;;;;;;;25.75;16.42;;;;;;;;;;5045747;28;20041;-67
2022/03/07 12:27:06;;;;;;;12.00;10.32;;;7.20;99.90;;;;;;5030776;28;20045;-67
2022/03/07 12:29:33;;;;;;;29.55;14.38;;;;;;;;;;5031715;28;20049;-67
2022/03/07 12:32:04;;;;;;;10.10;5.43;;;7.40;99.90;;;;;;5015089;28;20052;-67
2022/03/07 12:34:32;;;;;;;8.02;3.92;;;7.00;99.90;;;;;;5031083;28;20038;-67
2022/03/07 12:37:08;;;;;;;6.63;3.88;;;7.50;99.90;;;;;;5030762;28;20072;-67
2022/03/07 12:39:59;;;;;;;6.85;2.75;;;7.00;99.90;;;;;;5034873;28;20056;-67
2022/03/07 12:42:28;;;;;;;5.45;1.50;;;7.20;99.90;;;;;;5017820;28;20451;-67
2022/03/07 12:44:55;;;;;;;6.47;1.88;;;7.40;99.90;;;;;;5034896;28;20429;-67
2022/03/07 12:47:27;;;;;;;3.78;1.90;;;7.70;99.90;;;;;;5021486;28;20087;-67
2022/03/07 12:49:53;;;;;;;6.15;2.47;;;;;;;;;;5013874;28;20041;-67
2022/03/07 12:52:27;;;;;;;5.07;1.83;;;7.90;99.90;;;;;;5014933;28;20081;-67
2022/03/07 12:54:54;;;;;;;6.47;2.35;;;8.20;99.90;;;;;;5015271;28;20124;-67
2022/03/07 12:57:20;;;;;;;6.68;2.40;;;;;;;;;;5014743;28;20055;-67
2022/03/07 12:59:54;;;;;;;4.15;1.60;;;8.00;99.90;;;;;;4998183;28;20076;-67
2022/03/07 13:02:20;;;;;;;7.25;2.35;;;7.90;99.90;;;;;;4998600;28;20052;-67
2022/03/07 13:04:46;;;;;;;6.90;2.05;;;;;;;;;;5014371;28;20371;-67
2022/03/07 13:07:12;;;;;;;6.10;2.20;;;8.00;99.90;;;;;;5014645;28;20052;-67
2022/03/07 13:09:39;;;;;;;5.60;1.77;;;;;;;;;;5021081;28;20044;-67
2022/03/07 13:12:10;;;;;;;5.38;2.00;;;7.50;99.90;;;;;;5034416;28;20499;-67
2022/03/07 13:14:37;;;;;;;9.80;2.58;;;7.80;99.90;;;;;;5052456;28;20037;-67
2022/03/07 13:17:17;;;;;;;8.30;2.15;;;7.60;99.90;;;;;;5031488;28;20048;-67